createdAt,value
2023-04-09T00:02:38.583Z,100.00
2023-04-09T00:05:51.794Z,100.00
2023-04-09T00:09:04.177Z,100.00
2023-04-09T00:12:16.844Z,100.00
2023-04-09T00:15:31.609Z,100.00
2023-04-09T00:18:44.713Z,100.00
2023-04-09T00:21:57.103Z,100.00
2023-04-09T00:25:09.764Z,100.00
2023-04-09T00:28:22.154Z,100.00
2023-04-09T00:31:34.869Z,100.00
2023-04-09T00:34:47.400Z,100.00
2023-04-09T00:38:00.088Z,100.00
2023-04-09T00:41:12.438Z,100.00
2023-04-09T00:44:25.549Z,100.00
2023-04-09T00:47:38.041Z,100.00
2023-04-09T00:50:50.944Z,100.00
2023-04-09T00:54:03.345Z,100.00
2023-04-09T00:57:16.185Z,100.00
2023-04-09T01:00:28.589Z,100.00
2023-04-09T01:03:41.333Z,100.00
2023-04-09T01:06:56.919Z,100.00
2023-04-09T01:10:43.157Z,100.00
2023-04-09T01:14:06.188Z,100.00
2023-04-09T01:17:31.142Z,100.00
2023-04-09T01:20:48.127Z,100.00
2023-04-09T01:24:21.258Z,100.00
2023-04-09T01:27:55.883Z,100.00
2023-04-09T01:31:15.491Z,100.00
2023-04-09T01:34:28.107Z,100.00
2023-04-09T01:37:41.018Z,100.00
2023-04-09T01:40:53.918Z,100.00
2023-04-09T01:44:06.548Z,100.00
2023-04-09T01:47:18.858Z,100.00
2023-04-09T01:50:32.132Z,100.00
2023-04-09T01:53:44.521Z,100.00
2023-04-09T01:56:57.774Z,100.00
2023-04-09T02:00:10.771Z,100.00
2023-04-09T02:03:45.277Z,100.00
2023-04-09T02:07:05.699Z,100.00
2023-04-09T02:10:18.103Z,100.00
2023-04-09T02:13:31.842Z,100.00
2023-04-09T02:16:46.568Z,100.00
2023-04-09T02:19:58.878Z,100.00
2023-04-09T02:23:11.509Z,100.00
2023-04-09T02:26:24.451Z,100.00
2023-04-09T02:29:37.130Z,100.00
2023-04-09T02:32:49.621Z,100.00
2023-04-09T02:36:02.366Z,100.00
2023-04-09T02:39:14.791Z,100.00
2023-04-09T02:42:27.906Z,100.00
2023-04-09T02:45:40.266Z,100.00
2023-04-09T02:48:53.158Z,100.00
2023-04-09T02:52:05.847Z,100.00
2023-04-09T02:55:19.246Z,100.00
2023-04-09T02:58:31.626Z,100.00
2023-04-09T03:01:44.396Z,100.00
2023-04-09T03:04:56.896Z,100.00
2023-04-09T03:08:09.714Z,100.00
2023-04-09T03:11:22.267Z,100.00
2023-04-09T03:14:35.333Z,100.00
2023-04-09T03:17:47.953Z,100.00
2023-04-09T03:21:00.627Z,100.00
2023-04-09T03:24:13.955Z,100.00
2023-04-09T03:27:26.774Z,100.00
2023-04-09T03:30:39.569Z,100.00
2023-04-09T03:33:52.259Z,100.00
2023-04-09T03:37:04.668Z,100.00
2023-04-09T03:40:17.532Z,100.00
2023-04-09T03:43:30.014Z,100.00
2023-04-09T03:46:42.927Z,100.00
2023-04-09T03:49:57.933Z,100.00
2023-04-09T03:53:10.930Z,100.00
2023-04-09T03:56:23.519Z,100.00
2023-04-09T03:59:36.292Z,100.00
2023-04-09T04:02:48.967Z,100.00
2023-04-09T04:06:03.415Z,100.00
2023-04-09T04:09:18.536Z,100.00
2023-04-09T04:12:32.066Z,100.00
2023-04-09T04:15:45.192Z,100.00
2023-04-09T04:18:58.518Z,100.00
2023-04-09T04:22:12.383Z,100.00
2023-04-09T04:25:26.375Z,100.00
2023-04-09T04:28:39.816Z,100.00
2023-04-09T04:31:52.995Z,100.00
2023-04-09T04:35:06.198Z,100.00
2023-04-09T04:38:19.365Z,100.00
2023-04-09T04:41:31.844Z,100.00
2023-04-09T04:44:48.334Z,100.00
2023-04-09T04:48:01.459Z,100.00
2023-04-09T04:51:14.237Z,100.00
2023-04-09T04:54:27.423Z,100.00
2023-04-09T04:57:40.514Z,100.00
2023-04-09T05:00:54.221Z,100.00
2023-04-09T05:04:07.206Z,100.00
2023-04-09T05:07:19.779Z,100.00
2023-04-09T05:10:32.861Z,100.00
2023-04-09T05:13:45.558Z,100.00
2023-04-09T05:16:59.641Z,100.00
2023-04-09T05:20:13.057Z,100.00
2023-04-09T05:23:27.526Z,100.00
2023-04-09T05:26:40.308Z,100.00
2023-04-09T05:29:53.013Z,100.00
2023-04-09T05:33:05.505Z,100.00
2023-04-09T05:36:18.946Z,100.00
2023-04-09T05:39:32.840Z,100.00
2023-04-09T05:42:45.876Z,100.00
2023-04-09T05:45:58.584Z,100.00
2023-04-09T05:49:11.612Z,100.00
2023-04-09T05:52:24.434Z,100.00
2023-04-09T05:55:37.328Z,100.00
2023-04-09T05:58:49.871Z,100.00
2023-04-09T06:02:03.373Z,100.00
2023-04-09T06:05:17.558Z,100.00
2023-04-09T06:08:31.533Z,100.00
2023-04-09T06:11:44.148Z,100.00
2023-04-09T06:14:56.852Z,100.00
2023-04-09T06:18:09.534Z,100.00
2023-04-09T06:21:21.923Z,100.00
2023-04-09T06:24:34.573Z,100.00
2023-04-09T06:27:47.045Z,100.00
2023-04-09T06:30:59.829Z,100.00
2023-04-09T06:34:12.253Z,100.00
2023-04-09T06:37:24.890Z,100.00
2023-04-09T06:40:40.503Z,100.00
2023-04-09T06:43:53.333Z,100.00
2023-04-09T06:47:06.205Z,100.00
2023-04-09T06:50:18.846Z,100.00
2023-04-09T06:53:31.332Z,100.00
2023-04-09T06:56:44.029Z,100.00
2023-04-09T06:59:56.523Z,100.00
2023-04-09T07:03:09.547Z,100.00
2023-04-09T07:06:22.117Z,99.34
2023-04-09T07:09:34.834Z,96.45
2023-04-09T07:12:47.245Z,96.75
2023-04-09T07:16:00.831Z,99.73
2023-04-09T07:19:13.228Z,98.50
2023-04-09T07:22:26.845Z,94.93
2023-04-09T07:25:39.191Z,92.14
2023-04-09T07:28:51.850Z,90.33
2023-04-09T07:32:04.457Z,89.48
2023-04-09T07:35:19.703Z,87.65
2023-04-09T07:38:32.033Z,88.69
2023-04-09T07:41:44.697Z,85.42
2023-04-09T07:44:57.067Z,86.12
2023-04-09T07:48:09.837Z,87.45
2023-04-09T07:51:22.222Z,88.34
2023-04-09T07:54:35.038Z,87.51
2023-04-09T07:57:48.313Z,87.40
2023-04-09T08:01:00.924Z,88.04
2023-04-09T08:04:13.869Z,90.00
2023-04-09T08:07:26.380Z,86.81
2023-04-09T08:10:39.463Z,84.96
2023-04-09T08:13:52.947Z,84.00
2023-04-09T08:17:05.833Z,82.64
2023-04-09T08:20:21.288Z,80.75
2023-04-09T08:23:33.987Z,79.59
2023-04-09T08:26:48.759Z,80.13
2023-04-09T08:30:02.483Z,81.16
2023-04-09T08:33:14.926Z,80.65
2023-04-09T08:36:27.782Z,77.87
2023-04-09T08:39:40.205Z,79.16
2023-04-09T08:42:55.981Z,76.00
2023-04-09T08:46:08.394Z,74.54
2023-04-09T08:49:21.397Z,75.88
2023-04-09T08:52:34.558Z,74.31
2023-04-09T08:55:47.209Z,72.96
2023-04-09T08:58:59.583Z,73.33
2023-04-09T09:02:12.663Z,73.42
2023-04-09T09:05:38.189Z,75.48
2023-04-09T09:09:03.546Z,76.15
2023-04-09T09:12:39.466Z,76.55
2023-04-09T09:15:55.371Z,76.85
2023-04-09T09:19:07.738Z,75.64
2023-04-09T09:22:20.661Z,73.18
2023-04-09T09:25:38.482Z,73.14
2023-04-09T09:28:51.620Z,75.38
2023-04-09T09:32:04.246Z,75.01
2023-04-09T09:35:16.882Z,73.36
2023-04-09T09:38:29.466Z,73.58
2023-04-09T09:41:42.352Z,73.37
2023-04-09T09:44:55.332Z,72.54
2023-04-09T09:48:10.111Z,74.46
2023-04-09T09:51:24.977Z,72.31
2023-04-09T09:54:44.580Z,69.79
2023-04-09T09:58:01.270Z,69.88
2023-04-09T10:01:14.176Z,68.51
2023-04-09T10:04:28.680Z,69.07
2023-04-09T10:07:41.099Z,70.24
2023-04-09T10:10:53.690Z,69.93
2023-04-09T10:14:06.146Z,68.24
2023-04-09T10:17:19.789Z,70.27
2023-04-09T10:20:41.918Z,69.49
2023-04-09T10:23:54.527Z,73.46
2023-04-09T10:27:16.009Z,69.93
2023-04-09T10:30:35.690Z,71.03
2023-04-09T10:33:48.018Z,71.07
2023-04-09T10:37:00.658Z,72.45
2023-04-09T10:40:19.824Z,72.43
2023-04-09T10:43:32.414Z,74.49
2023-04-09T10:46:45.972Z,75.32
2023-04-09T10:49:58.714Z,76.53
2023-04-09T10:53:24.359Z,76.27
2023-04-09T10:56:37.002Z,73.75
2023-04-09T10:59:50.901Z,73.24
2023-04-09T11:03:04.549Z,75.89
2023-04-09T11:06:17.744Z,72.76
2023-04-09T11:09:30.384Z,70.15
2023-04-09T11:12:43.125Z,71.85
2023-04-09T11:15:56.156Z,70.05
2023-04-09T11:19:10.663Z,68.20
2023-04-09T11:22:23.349Z,67.40
2023-04-09T11:25:35.730Z,67.71
2023-04-09T11:28:48.394Z,65.99
2023-04-09T11:32:00.874Z,67.27
2023-04-09T11:35:20.587Z,67.24
2023-04-09T11:38:32.900Z,64.51
2023-04-09T11:41:45.773Z,60.88
2023-04-09T11:44:58.146Z,59.19
2023-04-09T11:48:11.574Z,60.53
2023-04-09T11:51:23.894Z,59.64
2023-04-09T11:54:36.568Z,60.03
2023-04-09T11:57:48.874Z,62.51
2023-04-09T12:01:01.648Z,61.85
2023-04-09T12:04:20.232Z,60.78
2023-04-09T12:07:33.767Z,58.88
2023-04-09T12:10:46.417Z,56.66
2023-04-09T12:13:59.980Z,53.30
2023-04-09T12:17:12.674Z,52.58
2023-04-09T12:20:35.726Z,50.84
2023-04-09T12:23:48.388Z,51.34
2023-04-09T12:27:01.835Z,51.51
2023-04-09T12:30:14.557Z,51.31
2023-04-09T12:33:27.279Z,50.95
2023-04-09T12:36:41.562Z,51.81
2023-04-09T12:39:53.914Z,51.07
2023-04-09T12:43:06.795Z,53.72
2023-04-09T12:46:19.623Z,59.05
2023-04-09T12:49:33.052Z,59.10
2023-04-09T12:52:48.644Z,60.16
2023-04-09T12:56:01.439Z,59.54
2023-04-09T12:59:16.459Z,59.64
2023-04-09T13:02:30.040Z,59.85
2023-04-09T13:05:43.526Z,58.08
2023-04-09T13:08:56.265Z,59.28
2023-04-09T13:12:08.607Z,56.45
2023-04-09T13:15:21.373Z,55.73
2023-04-09T13:18:33.787Z,56.12
2023-04-09T13:21:46.499Z,55.64
2023-04-09T13:24:58.860Z,54.67
2023-04-09T13:28:11.561Z,54.26
2023-04-09T13:31:23.954Z,55.87
2023-04-09T13:34:36.682Z,55.25
2023-04-09T13:37:49.014Z,56.48
2023-04-09T13:41:01.733Z,55.90
2023-04-09T13:44:14.095Z,54.32
2023-04-09T13:47:27.163Z,53.96
2023-04-09T13:50:39.494Z,57.21
2023-04-09T13:53:52.505Z,58.48
2023-04-09T13:57:04.888Z,57.80
2023-04-09T14:00:17.604Z,55.33
2023-04-09T14:03:30.443Z,55.16
2023-04-09T14:06:43.337Z,57.58
2023-04-09T14:09:55.953Z,58.30
2023-04-09T14:13:10.588Z,56.55
2023-04-09T14:16:23.836Z,56.33
2023-04-09T14:19:36.194Z,54.92
2023-04-09T14:22:49.597Z,55.85
2023-04-09T14:26:03.106Z,55.78
2023-04-09T14:29:17.228Z,54.91
2023-04-09T14:32:29.535Z,55.69
2023-04-09T14:35:42.196Z,57.68
2023-04-09T14:38:57.449Z,57.12
2023-04-09T14:42:10.539Z,57.03
2023-04-09T14:45:23.123Z,57.58
2023-04-09T14:48:35.742Z,58.89
2023-04-09T14:51:48.052Z,60.06
2023-04-09T14:55:00.816Z,61.37
2023-04-09T14:58:13.184Z,58.95
2023-04-09T15:01:26.762Z,60.41
2023-04-09T15:04:39.326Z,59.66
2023-04-09T15:07:52.127Z,60.78
2023-04-09T15:11:04.662Z,63.49
2023-04-09T15:14:17.355Z,62.81
2023-04-09T15:17:30.723Z,63.97
2023-04-09T15:20:43.647Z,63.67
2023-04-09T15:23:58.892Z,65.21
2023-04-09T15:27:11.675Z,67.11
2023-04-09T15:30:24.165Z,66.32
2023-04-09T15:33:36.815Z,65.58
2023-04-09T15:36:49.238Z,65.96
2023-04-09T15:40:02.153Z,67.63
2023-04-09T15:43:14.574Z,69.07
2023-04-09T15:46:27.244Z,68.70
2023-04-09T15:49:39.582Z,69.10
2023-04-09T15:52:55.080Z,70.05
2023-04-09T15:56:08.515Z,68.96
2023-04-09T15:59:23.826Z,69.70
2023-04-09T16:02:38.731Z,71.26
2023-04-09T16:05:51.344Z,70.28
2023-04-09T16:09:03.969Z,70.70
2023-04-09T16:12:16.683Z,71.59
2023-04-09T16:15:29.059Z,72.32
2023-04-09T16:18:41.727Z,72.04
2023-04-09T16:21:54.210Z,72.64
2023-04-09T16:25:07.856Z,72.39
2023-04-09T16:28:21.965Z,72.97
2023-04-09T16:31:34.900Z,73.38
2023-04-09T16:34:47.509Z,73.12
2023-04-09T16:38:00.218Z,74.57
2023-04-09T16:41:12.552Z,73.95
2023-04-09T16:44:26.239Z,74.63
2023-04-09T16:47:38.593Z,74.42
2023-04-09T16:50:51.225Z,75.06
2023-04-09T16:54:03.668Z,74.47
2023-04-09T16:57:16.531Z,75.21
2023-04-09T17:00:29.048Z,75.63
2023-04-09T17:03:41.745Z,76.37
2023-04-09T17:06:56.897Z,76.79
2023-04-09T17:10:09.776Z,77.31
2023-04-09T17:13:22.145Z,78.22
2023-04-09T17:16:34.845Z,78.57
2023-04-09T17:19:47.262Z,79.26
2023-04-09T17:22:59.873Z,80.46
2023-04-09T17:26:12.217Z,82.27
2023-04-09T17:29:24.865Z,82.70
2023-04-09T17:32:37.489Z,84.47
2023-04-09T17:35:50.302Z,85.81
2023-04-09T17:39:03.048Z,86.72
2023-04-09T17:42:15.707Z,88.25
2023-04-09T17:45:28.161Z,89.86
2023-04-09T17:48:41.677Z,90.61
2023-04-09T17:51:54.012Z,91.79
2023-04-09T17:55:14.004Z,93.06
2023-04-09T17:58:27.076Z,92.13
2023-04-09T18:01:39.876Z,92.79
2023-04-09T18:04:52.943Z,92.22
2023-04-09T18:08:06.012Z,92.51
2023-04-09T18:11:18.626Z,95.00
2023-04-09T18:14:32.493Z,94.28
2023-04-09T18:17:45.799Z,93.96
2023-04-09T18:20:58.152Z,93.81
2023-04-09T18:24:10.777Z,92.92
2023-04-09T18:27:23.187Z,92.98
2023-04-09T18:30:38.962Z,93.13
2023-04-09T18:33:51.445Z,93.40
2023-04-09T18:37:04.111Z,94.26
2023-04-09T18:40:17.815Z,94.96
2023-04-09T18:43:30.463Z,94.03
2023-04-09T18:46:42.966Z,94.76
2023-04-09T18:49:55.727Z,94.87
2023-04-09T18:53:08.099Z,95.61
2023-04-09T18:56:21.220Z,95.70
2023-04-09T18:59:34.955Z,95.14
2023-04-09T19:02:48.552Z,94.87
2023-04-09T19:06:01.487Z,95.54
2023-04-09T19:09:14.120Z,95.96
2023-04-09T19:12:29.687Z,95.99
2023-04-09T19:15:42.287Z,95.70
2023-04-09T19:18:55.021Z,96.01
2023-04-09T19:22:08.092Z,96.17
2023-04-09T19:25:20.508Z,96.73
2023-04-09T19:28:33.193Z,96.97
2023-04-09T19:31:46.240Z,97.39
2023-04-09T19:34:58.917Z,97.67
2023-04-09T19:38:11.341Z,97.81
2023-04-09T19:41:24.268Z,97.60
2023-04-09T19:44:36.572Z,97.85
2023-04-09T19:47:49.172Z,97.94
2023-04-09T19:51:02.278Z,98.01
2023-04-09T19:54:16.566Z,98.82
2023-04-09T19:57:31.154Z,100.00
2023-04-09T20:00:43.867Z,100.00
2023-04-09T20:03:57.609Z,100.00
2023-04-09T20:07:10.106Z,100.00
2023-04-09T20:10:22.803Z,100.00
2023-04-09T20:13:35.160Z,100.00
2023-04-09T20:16:48.131Z,100.00
2023-04-09T20:20:00.618Z,100.00
2023-04-09T20:23:13.923Z,100.00
2023-04-09T20:26:26.332Z,100.00
2023-04-09T20:29:39.746Z,100.00
2023-04-09T20:32:52.346Z,100.00
2023-04-09T20:36:05.452Z,100.00
2023-04-09T20:39:18.382Z,100.00
2023-04-09T20:42:31.146Z,100.00
2023-04-09T20:45:43.648Z,100.00
2023-04-09T20:48:56.411Z,100.00
2023-04-09T20:52:09.588Z,100.00
2023-04-09T20:55:22.289Z,100.00
2023-04-09T20:58:34.750Z,100.00
2023-04-09T21:01:48.425Z,100.00
2023-04-09T21:05:08.521Z,100.00
2023-04-09T21:08:32.099Z,100.00
2023-04-09T21:11:44.429Z,100.00
2023-04-09T21:14:57.869Z,100.00
2023-04-09T21:18:10.353Z,100.00
2023-04-09T21:21:23.424Z,100.00
2023-04-09T21:24:35.784Z,100.00
2023-04-09T21:27:48.438Z,100.00
2023-04-09T21:31:00.926Z,100.00
2023-04-09T21:34:13.592Z,100.00
2023-04-09T21:37:27.430Z,100.00
2023-04-09T21:40:40.084Z,100.00
2023-04-09T21:43:52.595Z,100.00
2023-04-09T21:47:08.976Z,100.00
2023-04-09T21:50:22.239Z,100.00
2023-04-09T21:53:34.902Z,100.00
2023-04-09T21:56:47.282Z,100.00
2023-04-09T21:59:59.912Z,100.00
2023-04-09T22:03:12.708Z,100.00
2023-04-09T22:06:27.195Z,100.00
2023-04-09T22:09:39.579Z,100.00
2023-04-09T22:12:52.233Z,100.00
2023-04-09T22:16:05.191Z,100.00
2023-04-09T22:19:18.022Z,100.00
2023-04-09T22:22:30.444Z,100.00
2023-04-09T22:25:43.059Z,100.00
2023-04-09T22:28:55.578Z,100.00
2023-04-09T22:32:09.140Z,100.00
2023-04-09T22:35:21.508Z,100.00
2023-04-09T22:38:34.609Z,100.00
2023-04-09T22:41:47.010Z,100.00
2023-04-09T22:44:59.662Z,100.00
2023-04-09T22:48:12.362Z,100.00
2023-04-09T22:51:25.125Z,100.00
2023-04-09T22:54:38.181Z,100.00
2023-04-09T22:57:50.929Z,100.00
2023-04-09T23:01:03.675Z,100.00
2023-04-09T23:04:17.955Z,100.00
2023-04-09T23:07:30.386Z,100.00
2023-04-09T23:10:42.998Z,100.00
2023-04-09T23:13:55.449Z,100.00
2023-04-09T23:17:08.124Z,100.00
2023-04-09T23:20:20.672Z,100.00
2023-04-09T23:23:33.949Z,100.00
2023-04-09T23:26:46.337Z,100.00
2023-04-09T23:29:59.028Z,100.00
2023-04-09T23:33:11.334Z,100.00
2023-04-09T23:36:24.370Z,100.00
2023-04-09T23:39:37.064Z,100.00
2023-04-09T23:42:50.304Z,100.00
2023-04-09T23:46:02.672Z,100.00
2023-04-09T23:49:16.250Z,100.00
2023-04-09T23:52:28.609Z,100.00
2023-04-09T23:55:42.488Z,100.00
2023-04-09T23:58:54.857Z,100.00
